createdAt,value
2019-04-10T00:01:09.752Z,38.47
2019-04-10T00:03:42.057Z,41.30
2019-04-10T00:06:10.840Z,40.03
2019-04-10T00:08:40.049Z,41.37
2019-04-10T00:11:10.127Z,40.90
2019-04-10T00:13:39.681Z,41.03
2019-04-10T00:16:10.584Z,39.10
2019-04-10T00:18:40.109Z,40.97
2019-04-10T00:21:09.458Z,38.30
2019-04-10T00:23:39.469Z,41.33
2019-04-10T00:26:09.823Z,40.50
2019-04-10T00:28:39.504Z,39.70
2019-04-10T00:31:15.710Z,39.30
2019-04-10T00:33:54.245Z,40.33
2019-04-10T00:36:45.974Z,39.87
2019-04-10T00:39:16.236Z,39.40
2019-04-10T00:45:39.787Z,39.10
2019-04-10T00:48:09.879Z,39.20
2019-04-10T00:50:39.245Z,39.77
2019-04-10T00:53:08.584Z,40.60
2019-04-10T00:55:38.193Z,40.17
2019-04-10T00:58:07.376Z,40.00
2019-04-10T01:00:37.036Z,41.43
2019-04-10T01:03:07.422Z,40.50
2019-04-10T01:05:37.640Z,40.63
2019-04-10T01:08:07.049Z,40.93
2019-04-10T01:10:36.718Z,41.50
2019-04-10T01:13:06.157Z,39.07
2019-04-10T01:15:36.348Z,41.33
2019-04-10T01:18:06.786Z,42.53
2019-04-10T01:20:36.053Z,42.00
2019-04-10T01:23:05.838Z,38.50
2019-04-10T01:25:35.206Z,38.87
2019-04-10T01:28:04.661Z,39.73
2019-04-10T01:30:34.784Z,38.37
2019-04-10T01:33:04.112Z,38.77
2019-04-10T01:35:34.237Z,37.90
2019-04-10T01:38:05.904Z,40.20
2019-04-10T01:40:35.186Z,39.10
2019-04-10T01:43:09.671Z,38.03
2019-04-10T01:45:35.674Z,39.40
2019-04-10T01:48:05.960Z,39.53
2019-04-10T01:50:35.245Z,39.23
2019-04-10T01:53:04.422Z,38.70
2019-04-10T01:55:34.348Z,38.70
2019-04-10T01:58:06.305Z,39.63
2019-04-10T02:00:37.457Z,39.07
2019-04-10T02:03:06.709Z,40.20
2019-04-10T02:05:36.625Z,39.17
2019-04-10T02:08:09.020Z,39.20
2019-04-10T02:10:36.761Z,37.83
2019-04-10T02:13:05.954Z,38.50
2019-04-10T02:15:35.162Z,38.40
2019-04-10T02:18:05.336Z,39.00
2019-04-10T02:20:34.749Z,38.80
2019-04-10T02:23:03.912Z,38.67
2019-04-10T02:25:33.109Z,36.43
2019-04-10T02:28:02.793Z,37.77
2019-04-10T02:30:32.627Z,37.20
2019-04-10T02:33:04.325Z,37.90
2019-04-10T02:35:34.037Z,38.47
2019-04-10T02:38:22.181Z,38.87
2019-04-10T02:40:34.745Z,37.20
2019-04-10T02:43:05.745Z,38.20
2019-04-10T02:45:36.423Z,39.50
2019-04-10T02:48:07.677Z,38.40
2019-04-10T02:50:37.294Z,39.73
2019-04-10T02:53:07.830Z,40.00
2019-04-10T02:55:38.571Z,38.30
2019-04-10T02:58:08.086Z,38.40
2019-04-10T03:00:37.874Z,38.47
2019-04-10T03:03:07.318Z,36.90
2019-04-10T03:05:36.597Z,37.40
2019-04-10T03:08:07.017Z,36.20
2019-04-10T03:10:44.119Z,35.30
2019-04-10T03:13:08.940Z,35.07
2019-04-10T03:15:39.228Z,37.67
2019-04-10T03:18:08.571Z,36.33
2019-04-10T03:20:38.522Z,36.10
2019-04-10T03:23:07.748Z,35.23
2019-04-10T03:25:37.174Z,37.07
2019-04-10T03:28:07.597Z,34.00
2019-04-10T03:30:38.780Z,35.73
2019-04-10T03:33:26.290Z,35.83
2019-04-10T03:35:54.804Z,33.07
2019-04-10T03:38:24.193Z,34.73
2019-04-10T03:40:53.495Z,33.67
2019-04-10T03:43:24.193Z,32.73
2019-04-10T03:45:53.365Z,32.60
2019-04-10T03:48:23.037Z,32.83
2019-04-10T03:50:52.321Z,32.97
2019-04-10T03:53:22.122Z,32.37
2019-04-10T03:55:53.534Z,32.77
2019-04-10T03:58:23.145Z,32.40
2019-04-10T04:00:52.650Z,31.37
2019-04-10T04:03:21.849Z,32.50
2019-04-10T04:05:51.129Z,30.57
2019-04-10T04:08:21.454Z,30.60
2019-04-10T04:10:51.230Z,31.80
2019-04-10T04:13:21.677Z,32.50
2019-04-10T04:15:51.041Z,35.93
2019-04-10T04:18:21.283Z,32.33
2019-04-10T04:20:51.021Z,31.27
2019-04-10T04:23:21.274Z,29.80
2019-04-10T04:25:50.729Z,30.73
2019-04-10T04:28:20.109Z,30.33
2019-04-10T04:30:51.966Z,30.40
2019-04-10T04:33:21.147Z,29.90
2019-04-10T04:35:51.053Z,29.70
2019-04-10T04:38:20.721Z,29.30
2019-04-10T04:40:51.271Z,29.03
2019-04-10T04:43:21.704Z,27.53
2019-04-10T04:45:51.604Z,29.10
2019-04-10T04:48:21.950Z,28.93
2019-04-10T04:50:52.225Z,26.80
2019-04-10T04:53:21.543Z,26.90
2019-04-10T04:55:51.404Z,27.17
2019-04-10T04:58:20.850Z,26.57
2019-04-10T05:00:50.814Z,29.10
2019-04-10T05:03:20.780Z,25.57
2019-04-10T05:05:50.183Z,25.93
2019-04-10T05:08:19.684Z,25.43
2019-04-10T05:10:49.649Z,25.57
2019-04-10T05:13:19.297Z,26.70
2019-04-10T05:15:49.232Z,25.97
2019-04-10T05:18:19.055Z,26.57
2019-04-10T05:20:50.485Z,26.57
2019-04-10T05:23:19.222Z,25.00
2019-04-10T05:25:48.397Z,25.27
2019-04-10T05:28:17.597Z,24.30
2019-04-10T05:30:46.780Z,26.80
2019-04-10T05:33:16.271Z,25.73
2019-04-10T05:35:45.529Z,24.90
2019-04-10T05:38:14.730Z,24.90
2019-04-10T05:40:44.244Z,23.67
2019-04-10T05:43:13.580Z,25.97
2019-04-10T05:45:42.756Z,26.20
2019-04-10T05:48:12.218Z,25.30
2019-04-10T05:50:53.064Z,24.40
2019-04-10T05:53:12.336Z,24.07
2019-04-10T05:55:41.552Z,23.57
2019-04-10T05:58:10.822Z,23.70
2019-04-10T06:00:41.000Z,24.00
2019-04-10T06:03:10.305Z,22.60
2019-04-10T06:05:40.457Z,24.80
2019-04-10T06:08:09.875Z,24.23
2019-04-10T06:10:39.540Z,24.67
2019-04-10T06:13:08.929Z,24.27
2019-04-10T06:15:39.163Z,23.37
2019-04-10T06:18:09.172Z,23.73
2019-04-10T06:20:39.612Z,23.47
2019-04-10T06:23:09.468Z,23.20
2019-04-10T06:25:41.503Z,23.80
2019-04-10T06:28:09.685Z,22.17
2019-04-10T06:30:39.774Z,22.77
2019-04-10T06:33:09.706Z,23.40
2019-04-10T06:35:39.843Z,22.13
2019-04-10T06:38:10.676Z,21.83
2019-04-10T06:40:40.009Z,22.60
2019-04-10T06:43:09.205Z,22.47
2019-04-10T06:45:39.923Z,23.67
2019-04-10T06:48:09.229Z,22.43
2019-04-10T06:50:39.196Z,22.93
2019-04-10T06:53:08.560Z,21.80
2019-04-10T06:55:38.553Z,22.10
2019-04-10T06:58:07.814Z,20.90
2019-04-10T07:00:37.052Z,21.13
2019-04-10T07:03:06.601Z,21.40
2019-04-10T07:05:40.822Z,21.37
2019-04-10T07:08:15.457Z,20.20
2019-04-10T07:10:48.282Z,22.27
2019-04-10T07:13:11.608Z,20.00
2019-04-10T07:15:43.649Z,21.20
2019-04-10T07:18:16.758Z,20.63
2019-04-10T07:20:44.196Z,20.60
2019-04-10T07:23:15.714Z,21.50
2019-04-10T07:25:46.571Z,20.40
2019-04-10T07:28:15.297Z,21.07
2019-04-10T07:30:45.581Z,20.00
2019-04-10T07:33:16.992Z,21.00
2019-04-10T07:35:46.475Z,21.43
2019-04-10T07:38:15.986Z,21.43
2019-04-10T07:40:45.243Z,20.47
2019-04-10T07:43:15.273Z,21.47
2019-04-10T07:45:44.586Z,20.63
2019-04-10T07:48:14.098Z,21.33
2019-04-10T07:50:45.547Z,19.37
2019-04-10T07:53:14.884Z,21.17
2019-04-10T07:55:57.515Z,19.90
2019-04-10T07:58:15.291Z,21.60
2019-04-10T08:00:45.576Z,20.73
2019-04-10T08:03:16.733Z,19.60
2019-04-10T08:05:46.057Z,19.77
2019-04-10T08:08:15.369Z,20.70
2019-04-10T08:10:45.124Z,21.17
2019-04-10T08:13:14.424Z,22.20
2019-04-10T08:15:43.604Z,22.13
2019-04-10T08:18:12.805Z,19.70
2019-04-10T08:20:42.493Z,20.80
2019-04-10T08:23:12.302Z,21.73
2019-04-10T08:25:41.544Z,20.50
2019-04-10T08:28:11.444Z,21.90
2019-04-10T08:30:41.873Z,21.80
2019-04-10T08:33:12.328Z,20.50
2019-04-10T08:35:41.947Z,21.47
2019-04-10T08:38:13.120Z,20.20
2019-04-10T08:40:42.437Z,21.30
2019-04-10T08:43:11.801Z,21.10
2019-04-10T08:45:47.656Z,19.80
2019-04-10T08:48:11.993Z,19.60
2019-04-10T08:50:41.922Z,20.70
2019-04-10T08:53:11.646Z,20.80
2019-04-10T08:55:42.022Z,21.53
2019-04-10T08:58:11.469Z,20.83
2019-04-10T09:00:40.795Z,19.60
2019-04-10T09:03:10.788Z,19.30
2019-04-10T09:05:40.369Z,20.40
2019-04-10T09:08:10.695Z,19.13
2019-04-10T09:10:40.654Z,19.32
2019-04-10T09:13:10.426Z,19.73
2019-04-10T09:15:40.242Z,20.13
2019-04-10T09:18:11.217Z,19.13
2019-04-10T09:20:40.709Z,19.30
2019-04-10T09:23:21.476Z,20.37
2019-04-10T09:25:41.589Z,18.27
2019-04-10T09:28:10.911Z,18.17
2019-04-10T09:30:40.762Z,18.83
2019-04-10T09:33:20.999Z,18.63
2019-04-10T09:35:41.137Z,19.80
2019-04-10T09:38:10.587Z,19.57
2019-04-10T09:40:40.504Z,18.60
2019-04-10T09:43:09.783Z,18.13
2019-04-10T09:45:39.305Z,19.07
2019-04-10T09:48:08.658Z,19.80
2019-04-10T09:50:37.833Z,20.37
2019-04-10T09:53:07.045Z,19.73
2019-04-10T09:55:36.296Z,18.53
2019-04-10T09:58:06.561Z,21.37
2019-04-10T10:00:36.109Z,20.50
2019-04-10T10:03:05.572Z,19.63
2019-04-10T10:05:34.949Z,18.83
2019-04-10T10:08:04.337Z,19.53
2019-04-10T10:10:35.751Z,20.13
2019-04-10T10:13:05.352Z,20.10
2019-04-10T10:15:35.584Z,18.77
2019-04-10T10:18:05.483Z,19.77
2019-04-10T10:20:35.613Z,17.50
2019-04-10T10:23:05.422Z,19.77
2019-04-10T10:25:35.354Z,19.30
2019-04-10T10:28:05.005Z,18.00
2019-04-10T10:30:34.193Z,17.77
2019-04-10T10:33:03.704Z,17.70
2019-04-10T10:35:33.466Z,17.77
2019-04-10T10:38:03.853Z,19.83
2019-04-10T10:40:33.949Z,18.33
2019-04-10T10:43:04.439Z,18.40
2019-04-10T10:45:34.639Z,17.00
2019-04-10T10:48:08.360Z,16.40
2019-04-10T10:50:35.973Z,19.50
2019-04-10T10:53:06.124Z,17.90
2019-04-10T10:55:36.497Z,18.03
2019-04-10T10:58:05.860Z,19.10
2019-04-10T11:00:35.587Z,18.60
2019-04-10T11:03:05.699Z,18.27
2019-04-10T11:05:35.748Z,18.57
2019-04-10T11:08:05.400Z,18.50
2019-04-10T11:10:34.720Z,18.10
2019-04-10T11:13:04.365Z,17.93
2019-04-10T11:15:34.180Z,18.97
2019-04-10T11:18:04.293Z,17.03
2019-04-10T11:20:34.007Z,16.87
2019-04-10T11:23:03.984Z,18.70
2019-04-10T11:25:33.729Z,18.43
2019-04-10T11:28:04.021Z,16.23
2019-04-10T11:30:34.583Z,16.90
2019-04-10T11:33:04.069Z,14.73
2019-04-10T11:35:33.397Z,15.70
2019-04-10T11:38:03.453Z,16.73
2019-04-10T11:40:34.334Z,15.73
2019-04-10T11:43:05.349Z,15.50
2019-04-10T11:45:41.327Z,14.40
2019-04-10T11:48:06.046Z,14.80
2019-04-10T11:50:38.001Z,16.27
2019-04-10T11:53:07.089Z,15.17
2019-04-10T11:55:45.048Z,15.53
2019-04-10T11:58:10.661Z,14.70
2019-04-10T12:00:50.391Z,16.50
2019-04-10T12:03:12.956Z,15.17
2019-04-10T12:05:42.870Z,15.60
2019-04-10T12:13:16.448Z,16.97
2019-04-10T12:15:45.062Z,14.17
2019-04-10T12:18:14.365Z,15.60
2019-04-10T12:20:43.613Z,13.60
2019-04-10T12:23:13.069Z,14.90
2019-04-10T12:25:42.973Z,13.30
2019-04-10T12:28:12.289Z,12.90
2019-04-10T12:30:41.690Z,13.50
2019-04-10T12:33:11.693Z,13.07
2019-04-10T12:35:40.995Z,13.87
2019-04-10T12:38:11.719Z,14.20
2019-04-10T12:40:41.069Z,13.20
2019-04-10T12:43:10.498Z,14.10
2019-04-10T12:45:40.273Z,13.50
2019-04-10T12:48:10.447Z,14.20
2019-04-10T12:50:39.798Z,13.43
2019-04-10T12:53:09.406Z,13.37
2019-04-10T12:55:38.886Z,13.77
2019-04-10T12:58:15.299Z,14.10
2019-04-10T13:00:41.020Z,12.17
2019-04-10T13:03:11.168Z,13.50
2019-04-10T13:05:41.151Z,13.40
2019-04-10T13:08:20.413Z,14.37
2019-04-10T13:10:43.788Z,13.60
2019-04-10T13:13:13.648Z,12.97
2019-04-10T13:15:43.571Z,13.90
2019-04-10T13:18:12.796Z,13.53
2019-04-10T13:20:42.052Z,13.50
2019-04-10T13:23:13.575Z,12.83
2019-04-10T13:25:42.824Z,12.43
2019-04-10T13:28:13.025Z,13.80
2019-04-10T13:30:48.936Z,13.30
2019-04-10T13:33:14.186Z,12.80
2019-04-10T13:35:43.456Z,13.50
2019-04-10T13:38:23.146Z,14.60
2019-04-10T13:40:43.817Z,13.20
2019-04-10T13:43:13.764Z,13.00
2019-04-10T13:45:43.815Z,14.57
2019-04-10T13:48:13.182Z,13.73
2019-04-10T13:50:43.690Z,13.47
2019-04-10T13:53:13.409Z,13.40
2019-04-10T13:55:42.837Z,13.67
2019-04-10T13:58:12.337Z,15.07
2019-04-10T14:00:43.034Z,13.47
2019-04-10T14:03:12.440Z,13.70
2019-04-10T14:05:41.618Z,14.10
2019-04-10T14:08:10.816Z,13.13
2019-04-10T14:10:41.781Z,13.90
2019-04-10T14:13:11.664Z,13.10
2019-04-10T14:15:40.899Z,12.60
2019-04-10T14:18:12.257Z,12.53
2019-04-10T14:20:41.641Z,13.10
2019-04-10T14:23:12.654Z,13.10
2019-04-10T14:25:44.158Z,12.60
2019-04-10T14:28:13.416Z,12.13
2019-04-10T14:30:45.364Z,13.30
2019-04-10T14:33:15.945Z,13.87
2019-04-10T14:35:45.390Z,13.60
2019-04-10T14:38:14.933Z,12.03
2019-04-10T14:40:45.243Z,12.43
2019-04-10T14:43:14.888Z,13.47
2019-04-10T14:45:44.084Z,13.40
2019-04-10T14:48:14.066Z,13.00
2019-04-10T14:50:44.202Z,12.73
2019-04-10T14:53:13.877Z,14.60
2019-04-10T14:55:43.918Z,14.30
2019-04-10T14:58:21.964Z,13.73
2019-04-10T15:00:46.721Z,13.30
2019-04-10T15:03:16.845Z,13.07
2019-04-10T15:05:50.893Z,13.20
2019-04-10T15:08:17.596Z,13.43
2019-04-10T15:10:47.177Z,13.37
2019-04-10T15:13:20.981Z,13.07
2019-04-10T15:15:48.285Z,13.60
2019-04-10T15:18:18.443Z,13.20
2019-04-10T15:20:47.707Z,12.50
2019-04-10T15:23:16.904Z,12.17
2019-04-10T15:25:47.113Z,11.53
2019-04-10T15:28:16.460Z,11.50
2019-04-10T15:30:46.605Z,12.37
2019-04-10T15:33:15.856Z,12.10
2019-04-10T15:35:45.057Z,10.93
2019-04-10T15:38:14.230Z,11.57
2019-04-10T15:40:44.063Z,12.47
2019-04-10T15:43:13.643Z,12.70
2019-04-10T15:45:44.098Z,12.68
2019-04-10T15:48:13.492Z,13.07
2019-04-10T15:50:43.423Z,12.80
2019-04-10T15:53:12.845Z,13.93
2019-04-10T15:55:42.133Z,15.10
2019-04-10T15:58:11.381Z,13.93
2019-04-10T16:00:41.376Z,13.70
2019-04-10T16:03:11.314Z,14.17
2019-04-10T16:05:41.744Z,14.70
2019-04-10T16:08:14.239Z,15.17
2019-04-10T16:10:52.951Z,14.33
2019-04-10T16:13:41.901Z,15.10
2019-04-10T16:16:19.101Z,15.47
2019-04-10T16:18:51.161Z,14.33
2019-04-10T16:21:20.406Z,15.67
2019-04-10T16:23:58.230Z,16.30
2019-04-10T16:26:29.281Z,15.30
2019-04-10T16:28:59.817Z,14.80
2019-04-10T16:31:29.812Z,14.40
2019-04-10T16:34:00.877Z,14.93
2019-04-10T16:36:30.505Z,13.20
2019-04-10T16:39:00.790Z,14.83
2019-04-10T16:41:31.690Z,13.07
2019-04-10T16:44:01.178Z,14.17
2019-04-10T16:46:30.354Z,14.43
2019-04-10T16:49:00.237Z,12.97
2019-04-10T16:51:29.559Z,14.13
2019-04-10T16:53:58.751Z,13.40
2019-04-10T16:56:27.938Z,11.93
2019-04-10T16:58:58.365Z,12.60
2019-04-10T17:01:28.844Z,12.83
2019-04-10T17:03:58.686Z,12.83
2019-04-10T17:06:28.291Z,12.07
2019-04-10T17:08:58.490Z,12.00
2019-04-10T17:11:27.754Z,12.30
2019-04-10T17:13:57.221Z,12.47
2019-04-10T17:16:26.493Z,12.20
2019-04-10T17:18:55.669Z,12.23
2019-04-10T17:21:26.632Z,12.67
2019-04-10T17:23:56.668Z,13.20
2019-04-10T17:26:26.712Z,12.17
2019-04-10T17:28:56.673Z,13.07
2019-04-10T17:31:26.643Z,12.93
2019-04-10T17:33:56.625Z,12.33
2019-04-10T17:36:27.115Z,12.43
2019-04-10T17:38:56.572Z,12.50
2019-04-10T17:41:26.078Z,12.57
2019-04-10T17:43:58.250Z,13.20
2019-04-10T17:46:27.545Z,13.03
2019-04-10T17:48:57.050Z,13.20
2019-04-10T17:51:26.229Z,12.73
2019-04-10T17:53:55.917Z,12.40
2019-04-10T17:56:26.119Z,11.80
2019-04-10T17:58:56.046Z,12.37
2019-04-10T18:01:27.060Z,12.90
2019-04-10T18:03:58.970Z,13.30
2019-04-10T18:06:27.703Z,13.23
2019-04-10T18:08:57.134Z,12.70
2019-04-10T18:11:26.337Z,12.37
2019-04-10T18:13:55.533Z,13.10
2019-04-10T18:16:25.602Z,13.40
2019-04-10T18:18:55.945Z,13.70
2019-04-10T18:21:25.245Z,12.60
2019-04-10T18:23:54.432Z,12.27
2019-04-10T18:26:23.714Z,12.13
2019-04-10T18:28:53.975Z,12.03
2019-04-10T18:31:25.140Z,12.50
2019-04-10T18:33:55.176Z,12.40
2019-04-10T18:36:24.538Z,11.80
2019-04-10T18:38:54.225Z,12.63
2019-04-10T18:41:24.224Z,12.00
2019-04-10T18:43:53.548Z,11.40
2019-04-10T18:46:23.893Z,11.97
2019-04-10T18:48:53.325Z,12.00
2019-04-10T18:51:23.523Z,13.17
2019-04-10T18:53:53.358Z,12.67
2019-04-10T18:56:22.979Z,11.93
2019-04-10T18:59:05.681Z,13.00
2019-04-10T19:01:53.625Z,13.10
2019-04-10T19:04:27.466Z,13.10
2019-04-10T19:07:01.458Z,12.23
2019-04-10T19:09:32.515Z,11.53
2019-04-10T19:12:02.512Z,13.97
2019-04-10T19:14:35.865Z,12.47
2019-04-10T19:17:02.841Z,12.60
2019-04-10T19:19:32.467Z,13.13
2019-04-10T19:22:04.203Z,13.67
2019-04-10T19:24:34.058Z,13.40
2019-04-10T19:27:04.298Z,12.43
2019-04-10T19:29:33.826Z,12.37
2019-04-10T19:32:04.875Z,13.13
2019-04-10T19:34:34.406Z,13.70
2019-04-10T19:37:04.648Z,13.10
2019-04-10T19:39:34.204Z,13.40
2019-04-10T19:42:04.864Z,13.23
2019-04-10T19:44:35.323Z,13.30
2019-04-10T19:47:04.655Z,12.80
2019-04-10T19:49:34.921Z,12.37
2019-04-10T19:52:04.649Z,12.30
2019-04-10T19:54:33.902Z,12.83
2019-04-10T19:57:03.086Z,12.77
2019-04-10T19:59:33.453Z,14.03
2019-04-10T20:02:02.744Z,13.27
2019-04-10T20:04:32.477Z,12.20
2019-04-10T20:07:02.780Z,12.57
2019-04-10T20:09:32.660Z,13.27
2019-04-10T20:12:02.449Z,12.07
2019-04-10T20:14:32.711Z,12.40
2019-04-10T20:17:03.867Z,11.30
2019-04-10T20:19:33.195Z,11.50
2019-04-10T20:22:02.393Z,11.03
2019-04-10T20:24:32.618Z,11.67
2019-04-10T20:27:01.933Z,11.37
2019-04-10T20:29:31.105Z,11.03
2019-04-10T20:32:00.297Z,11.40
2019-04-10T20:34:29.605Z,12.30
2019-04-10T20:37:05.864Z,11.40
2019-04-10T20:39:31.525Z,10.87
2019-04-10T20:42:01.005Z,11.77
2019-04-10T20:44:30.742Z,11.40
2019-04-10T20:47:00.411Z,10.90
2019-04-10T20:49:30.154Z,12.20
2019-04-10T20:51:59.459Z,11.30
2019-04-10T20:54:30.847Z,11.57
2019-04-10T20:57:01.163Z,12.13
2019-04-10T20:59:30.593Z,12.27
2019-04-10T21:02:01.958Z,10.93
2019-04-10T21:04:32.402Z,12.20
2019-04-10T21:07:02.792Z,11.57
2019-04-10T21:09:32.194Z,11.93
2019-04-10T21:12:08.191Z,11.50
2019-04-10T21:14:33.691Z,12.30
2019-04-10T21:17:03.081Z,11.73
2019-04-10T21:19:33.344Z,12.13
2019-04-10T21:22:03.738Z,11.90
2019-04-10T21:24:33.594Z,11.93
2019-04-10T21:27:03.577Z,12.37
2019-04-10T21:29:44.212Z,12.37
2019-04-10T21:32:32.381Z,11.97
2019-04-10T21:35:03.974Z,11.60
2019-04-10T21:37:33.220Z,11.93
2019-04-10T21:40:02.782Z,12.40
2019-04-10T21:42:33.609Z,11.73
2019-04-10T21:45:02.925Z,12.17
2019-04-10T21:47:32.122Z,12.10
2019-04-10T21:50:02.615Z,12.07
2019-04-10T21:52:33.154Z,12.13
2019-04-10T21:55:02.766Z,13.20
2019-04-10T21:57:32.059Z,13.93
2019-04-10T22:00:01.624Z,12.80
2019-04-10T22:02:32.150Z,13.30
2019-04-10T22:05:01.338Z,12.00
2019-04-10T22:07:35.040Z,13.77
2019-04-10T22:10:13.420Z,13.20
2019-04-10T22:12:47.103Z,12.53
2019-04-10T22:15:21.082Z,13.10
2019-04-10T22:17:50.444Z,13.33
2019-04-10T22:20:19.789Z,13.03
2019-04-10T22:22:48.977Z,13.60
2019-04-10T22:25:19.416Z,13.77
2019-04-10T22:27:49.949Z,13.00
2019-04-10T22:30:19.500Z,14.20
2019-04-10T22:32:49.305Z,13.50
2019-04-10T22:35:19.417Z,13.23
2019-04-10T22:37:48.729Z,14.10
2019-04-10T22:40:17.922Z,14.43
2019-04-10T22:42:48.602Z,13.67
2019-04-10T22:45:25.745Z,13.97
2019-04-10T22:47:54.573Z,13.30
2019-04-10T22:50:24.448Z,13.50
2019-04-10T22:52:54.879Z,14.67
2019-04-10T22:55:24.509Z,14.67
2019-04-10T22:57:54.727Z,14.13
2019-04-10T23:00:32.693Z,13.13
2019-04-10T23:03:03.181Z,13.87
2019-04-10T23:05:32.653Z,14.40
2019-04-10T23:08:03.186Z,14.00
2019-04-10T23:10:33.234Z,13.83
2019-04-10T23:13:05.345Z,13.60
2019-04-10T23:15:33.612Z,13.57
2019-04-10T23:18:03.375Z,13.30
2019-04-10T23:20:32.667Z,13.20
2019-04-10T23:23:03.125Z,13.03
2019-04-10T23:25:32.357Z,13.57
2019-04-10T23:28:01.542Z,13.30
2019-04-10T23:30:30.878Z,12.80
2019-04-10T23:33:01.784Z,12.77
2019-04-10T23:35:31.645Z,12.80
2019-04-10T23:38:01.495Z,12.90
2019-04-10T23:40:31.097Z,12.77
2019-04-10T23:43:07.555Z,13.73
2019-04-10T23:45:31.568Z,14.30
2019-04-10T23:48:00.859Z,13.40
2019-04-10T23:50:30.294Z,13.97
2019-04-10T23:53:00.360Z,13.53
2019-04-10T23:55:30.190Z,14.23
2019-04-10T23:58:00.007Z,13.87
